Time;durP1;ratioP1;P1;durP2;ratioP2;P2;SDS_P1;SDS_P2;PMS_P1;PMS_P2;Temp;Humidity;BMP_temperature;BMP_pressure;BME280_temperature;BME280_humidity;BME280_pressure;Samples;Min_cycle;Max_cycle;Signal;HPM_P1;HPM_P2
2021/06/10 00:00:23;;;;;;;12.18;8.48;;;19.80;77.40;;;;;;5020845;28;20030;-71
2021/06/10 00:02:50;;;;;;;12.93;8.45;;;19.60;77.30;;;;;;5021712;28;20025;-71
2021/06/10 00:05:19;;;;;;;8.27;7.05;;;19.60;78.20;;;;;;5021759;28;20124;-71
2021/06/10 00:07:45;;;;;;;8.35;6.88;;;19.50;79.20;;;;;;5019836;28;20030;-71
2021/06/10 00:10:13;;;;;;;8.20;7.47;;;19.40;79.00;;;;;;5021664;28;20033;-71
2021/06/10 00:12:39;;;;;;;7.07;6.45;;;19.50;79.10;;;;;;5020566;28;20109;-71
2021/06/10 00:15:08;;;;;;;9.77;7.53;;;19.40;79.70;;;;;;5022301;28;20113;-71
2021/06/10 00:17:33;;;;;;;8.40;7.10;;;19.30;79.50;;;;;;5021404;28;20022;-71
2021/06/10 00:19:59;;;;;;;8.70;7.90;;;19.20;80.00;;;;;;5021198;28;20021;-71
2021/06/10 00:22:25;;;;;;;9.25;8.40;;;19.20;79.60;;;;;;5021512;28;20025;-71
2021/06/10 00:24:51;;;;;;;10.05;7.20;;;19.20;79.80;;;;;;5020855;28;20056;-71
2021/06/10 00:27:20;;;;;;;8.68;6.72;;;19.10;79.20;;;;;;5022743;28;20543;-71
2021/06/10 00:29:48;;;;;;;9.10;8.23;;;19.10;79.10;;;;;;5020131;28;20366;-71
2021/06/10 00:32:15;;;;;;;9.18;7.88;;;19.10;79.80;;;;;;5021659;28;20057;-71
2021/06/10 00:34:41;;;;;;;9.52;8.65;;;18.90;80.00;;;;;;5020190;28;20503;-71
2021/06/10 00:37:07;;;;;;;11.25;8.15;;;18.80;80.50;;;;;;5022954;28;20433;-77
2021/06/10 00:39:33;;;;;;;8.27;7.47;;;18.80;81.00;;;;;;5020726;28;20724;-78
2021/06/10 00:41:58;;;;;;;6.85;6.15;;;18.80;80.80;;;;;;5021686;28;20030;-78
2021/06/10 00:44:24;;;;;;;9.10;6.53;;;18.70;80.70;;;;;;5021953;28;20080;-78
2021/06/10 00:46:49;;;;;;;9.07;6.47;;;18.80;80.60;;;;;;5019752;28;20576;-78
2021/06/10 00:49:15;;;;;;;7.72;6.95;;;18.80;80.60;;;;;;5018377;28;20037;-78
2021/06/10 00:51:40;;;;;;;8.70;7.35;;;18.90;81.10;;;;;;5022377;28;20065;-78
2021/06/10 00:54:06;;;;;;;9.45;7.53;;;18.90;80.50;;;;;;5020375;28;20037;-78
2021/06/10 00:56:33;;;;;;;8.95;6.68;;;18.90;81.00;;;;;;5021132;28;20033;-78
2021/06/10 00:58:59;;;;;;;9.65;8.73;;;18.80;81.40;;;;;;5020521;28;20518;-78
2021/06/10 01:01:25;;;;;;;8.13;6.90;;;18.60;81.80;;;;;;5020801;28;20128;-78
2021/06/10 01:03:52;;;;;;;10.52;7.45;;;18.50;81.60;;;;;;5022573;28;20022;-78
2021/06/10 01:06:25;;;;;;;7.03;6.07;;;18.60;82.00;;;;;;5020655;28;20033;-78
2021/06/10 01:08:59;;;;;;;9.25;5.90;;;18.70;81.50;;;;;;5020891;28;20014;-78
2021/06/10 01:11:34;;;;;;;8.02;6.32;;;18.90;81.10;;;;;;5020612;28;20030;-78
2021/06/10 01:14:39;;;;;;;8.55;7.63;;;19.10;81.20;;;;;;5022007;28;20017;-78
2021/06/10 01:17:05;;;;;;;7.22;6.53;;;19.20;80.90;;;;;;5019989;28;20050;-78
2021/06/10 01:19:40;;;;;;;8.07;7.28;;;19.10;81.00;;;;;;5020370;28;20053;-78
2021/06/10 01:22:11;;;;;;;9.27;8.35;;;19.10;81.50;;;;;;5019357;28;20109;-78
2021/06/10 01:25:08;;;;;;;7.30;6.60;;;19.10;81.20;;;;;;5019914;28;20040;-78
2021/06/10 01:27:48;;;;;;;10.10;8.77;;;18.90;81.40;;;;;;5020909;28;20036;-78
2021/06/10 01:30:21;;;;;;;8.68;7.78;;;18.70;82.10;;;;;;5020750;28;20030;-78
2021/06/10 01:32:52;;;;;;;7.95;7.15;;;18.50;82.60;;;;;;5021405;28;20022;-78
2021/06/10 01:35:20;;;;;;;7.18;6.50;;;18.30;83.00;;;;;;5020447;28;20033;-78
2021/06/10 01:37:47;;;;;;;8.35;7.55;;;18.40;83.50;;;;;;5021557;28;20038;-78
2021/06/10 01:40:13;;;;;;;13.68;7.93;;;18.50;83.70;;;;;;5016084;28;20108;-79
2021/06/10 01:42:41;;;;;;;10.25;7.25;;;18.60;83.80;;;;;;5021288;28;20026;-78
2021/06/10 01:45:10;;;;;;;9.43;8.27;;;18.60;83.70;;;;;;5021294;28;20018;-79
2021/06/10 01:47:41;;;;;;;9.35;8.45;;;18.60;83.50;;;;;;5005395;28;20025;-78
2021/06/10 01:50:09;;;;;;;10.68;9.10;;;18.50;83.50;;;;;;5019104;28;20533;-78
2021/06/10 01:52:36;;;;;;;11.80;9.25;;;18.60;83.90;;;;;;5022926;28;20033;-78
2021/06/10 01:55:06;;;;;;;15.15;10.63;;;18.70;83.60;;;;;;5018864;28;20044;-78
2021/06/10 01:57:31;;;;;;;13.05;11.73;;;18.70;83.50;;;;;;5021273;28;20469;-78
2021/06/10 01:59:57;;;;;;;14.50;12.10;;;18.70;83.30;;;;;;5017296;28;20030;-78
2021/06/10 02:02:23;;;;;;;13.23;11.93;;;18.70;83.30;;;;;;5021367;28;20040;-78
2021/06/10 02:04:50;;;;;;;14.10;11.52;;;18.80;83.60;;;;;;5021042;28;20464;-78
2021/06/10 02:07:16;;;;;;;11.93;10.82;;;18.80;83.10;;;;;;5021152;28;20468;-78
2021/06/10 02:09:43;;;;;;;12.60;11.30;;;18.80;83.20;;;;;;5019617;28;20365;-78
2021/06/10 02:12:09;;;;;;;15.95;14.25;;;18.70;83.50;;;;;;5017194;28;20028;-78
2021/06/10 02:14:35;;;;;;;12.75;11.40;;;18.70;83.80;;;;;;5020882;28;20388;-78
2021/06/10 02:17:00;;;;;;;15.50;12.55;;;18.70;83.40;;;;;;5019137;28;20037;-78
2021/06/10 02:19:26;;;;;;;13.55;9.85;;;18.80;83.00;;;;;;5016960;28;20051;-78
2021/06/10 02:21:51;;;;;;;10.38;9.23;;;18.80;83.20;;;;;;5020328;28;20088;-78
2021/06/10 02:24:17;;;;;;;11.50;10.35;;;18.70;83.30;;;;;;5020316;28;20081;-78
2021/06/10 02:26:43;;;;;;;10.85;9.25;;;18.70;83.00;;;;;;5021096;28;20022;-78
2021/06/10 02:29:09;;;;;;;10.35;9.43;;;18.70;83.30;;;;;;5017184;28;20049;-78
2021/06/10 02:31:35;;;;;;;10.95;9.07;;;18.70;82.90;;;;;;5020275;28;20728;-78
2021/06/10 02:34:02;;;;;;;16.42;8.82;;;18.40;83.40;;;;;;5019714;28;20374;-78
2021/06/10 02:36:28;;;;;;;8.85;7.97;;;18.20;83.80;;;;;;5019933;28;20038;-78
2021/06/10 02:39:04;;;;;;;8.70;7.68;;;18.10;84.80;;;;;;5018743;28;20032;-78
2021/06/10 02:41:32;;;;;;;8.80;7.70;;;18.10;84.70;;;;;;5003169;28;20030;-78
2021/06/10 02:43:59;;;;;;;12.32;9.80;;;18.20;84.40;;;;;;5004883;28;20699;-78
2021/06/10 02:46:27;;;;;;;9.48;8.57;;;18.20;84.60;;;;;;5016756;28;20450;-78
2021/06/10 02:48:55;;;;;;;10.38;9.40;;;18.10;84.60;;;;;;5018080;28;20034;-78
2021/06/10 02:51:22;;;;;;;9.52;8.73;;;17.90;84.80;;;;;;5019560;28;20025;-78
2021/06/10 02:53:49;;;;;;;9.80;8.38;;;17.80;84.90;;;;;;5020119;28;20025;-78
2021/06/10 02:56:16;;;;;;;9.38;8.48;;;17.80;85.00;;;;;;5018002;28;20061;-77
2021/06/10 02:58:44;;;;;;;10.32;8.80;;;17.80;85.00;;;;;;5020093;28;20034;-78
2021/06/10 03:01:11;;;;;;;10.48;9.43;;;17.80;85.00;;;;;;5019775;28;20044;-77
2021/06/10 03:03:37;;;;;;;12.40;9.85;;;18.00;84.90;;;;;;5018393;28;20037;-77
2021/06/10 03:06:04;;;;;;;11.45;9.15;;;18.10;85.10;;;;;;5016428;28;20090;-77
2021/06/10 03:08:31;;;;;;;13.02;10.82;;;18.00;85.20;;;;;;5018340;28;20420;-77
2021/06/10 03:10:58;;;;;;;12.13;10.43;;;17.80;85.30;;;;;;5020008;28;20018;-77
2021/06/10 03:13:25;;;;;;;10.70;9.70;;;17.70;85.80;;;;;;5017032;28;20061;-77
2021/06/10 03:15:52;;;;;;;12.40;9.80;;;17.60;86.00;;;;;;5020159;28;20017;-77
2021/06/10 03:18:18;;;;;;;11.25;10.13;;;17.60;85.70;;;;;;5015916;28;20037;-77
2021/06/10 03:20:44;;;;;;;11.07;10.05;;;17.80;85.60;;;;;;5014498;28;20946;-77
2021/06/10 03:23:10;;;;;;;9.75;8.57;;;17.80;85.60;;;;;;5017701;28;20108;-77
2021/06/10 03:25:36;;;;;;;14.05;9.45;;;18.00;85.60;;;;;;5019692;28;20079;-77
2021/06/10 03:28:03;;;;;;;8.50;7.70;;;18.20;85.30;;;;;;5016445;28;20104;-77
2021/06/10 03:30:29;;;;;;;10.13;9.05;;;18.30;84.90;;;;;;5018371;28;20037;-78
2021/06/10 03:32:55;;;;;;;11.63;8.32;;;18.40;84.80;;;;;;5019778;28;20025;-78
2021/06/10 03:35:21;;;;;;;11.50;10.07;;;18.40;84.60;;;;;;5017423;28;20048;-78
2021/06/10 03:37:47;;;;;;;13.82;11.15;;;18.50;84.50;;;;;;5016596;28;20029;-77
2021/06/10 03:40:15;;;;;;;12.48;11.23;;;18.60;84.40;;;;;;5018261;28;20044;-77
2021/06/10 03:42:40;;;;;;;14.13;11.50;;;18.80;84.20;;;;;;5018932;28;20454;-78
2021/06/10 03:45:09;;;;;;;11.38;10.20;;;18.90;84.20;;;;;;5019046;28;20037;-78
2021/06/10 03:47:37;;;;;;;12.27;10.95;;;19.00;84.20;;;;;;5019107;28;20084;-77
2021/06/10 03:50:05;;;;;;;13.10;10.77;;;19.20;83.90;;;;;;5018042;28;20014;-77
2021/06/10 03:52:31;;;;;;;13.45;10.30;;;19.50;83.60;;;;;;5019167;28;20112;-77
2021/06/10 03:54:58;;;;;;;11.95;10.73;;;19.80;83.00;;;;;;5016574;28;20109;-78
2021/06/10 03:57:23;;;;;;;13.05;10.95;;;20.00;82.20;;;;;;5019027;28;20026;-78
2021/06/10 03:59:49;;;;;;;12.48;11.27;;;20.00;81.60;;;;;;5018869;28;20087;-78
2021/06/10 04:02:15;;;;;;;12.55;11.05;;;20.10;81.60;;;;;;5011462;28;20025;-78
2021/06/10 04:04:40;;;;;;;11.80;10.57;;;20.20;81.20;;;;;;5019283;28;20025;-78
2021/06/10 04:07:06;;;;;;;12.95;11.65;;;20.30;81.00;;;;;;5016033;28;20018;-78
2021/06/10 04:09:31;;;;;;;14.35;10.57;;;20.40;80.80;;;;;;5010849;28;20030;-78
2021/06/10 04:11:57;;;;;;;13.88;11.05;;;20.50;80.30;;;;;;5014247;28;20120;-77
2021/06/10 04:14:22;;;;;;;14.95;11.80;;;20.60;80.00;;;;;;5013115;28;20041;-77
2021/06/10 04:16:48;;;;;;;12.13;10.70;;;20.70;79.90;;;;;;5019313;28;20097;-78
2021/06/10 04:19:14;;;;;;;12.90;11.48;;;20.90;80.00;;;;;;5014109;28;20104;-77
2021/06/10 04:21:40;;;;;;;13.95;10.82;;;21.10;78.90;;;;;;5018963;28;20108;-77
2021/06/10 04:24:05;;;;;;;11.80;10.27;;;21.20;78.80;;;;;;5019148;28;20032;-77
2021/06/10 04:26:31;;;;;;;12.30;10.65;;;21.50;78.60;;;;;;5018687;28;20045;-78
2021/06/10 04:28:57;;;;;;;12.38;10.70;;;21.60;77.90;;;;;;5017139;28;20022;-77
2021/06/10 04:31:22;;;;;;;13.90;10.95;;;21.80;77.60;;;;;;5022098;28;20489;-79
2021/06/10 04:33:48;;;;;;;13.07;10.60;;;22.00;76.70;;;;;;5020970;28;20040;-79
2021/06/10 04:36:14;;;;;;;12.70;11.15;;;22.30;76.30;;;;;;5006822;28;20128;-78
2021/06/10 04:38:41;;;;;;;14.13;11.38;;;22.50;74.80;;;;;;5019025;28;21645;-79
2021/06/10 04:41:07;;;;;;;24.25;12.93;;;22.70;74.30;;;;;;5022284;28;20091;-78
2021/06/10 04:43:33;;;;;;;13.38;12.07;;;22.90;74.30;;;;;;5024019;28;20032;-75
2021/06/10 04:45:59;;;;;;;13.15;11.23;;;23.20;73.10;;;;;;5020625;28;20038;-77
2021/06/10 04:48:25;;;;;;;13.77;12.38;;;23.50;73.60;;;;;;5016356;28;20109;-76
2021/06/10 04:50:51;;;;;;;20.02;16.00;;;23.60;72.90;;;;;;5017591;28;20681;-77
2021/06/10 04:53:16;;;;;;;22.23;15.10;;;23.50;72.20;;;;;;5022438;28;20117;-76
2021/06/10 04:55:43;;;;;;;18.27;15.25;;;23.50;71.90;;;;;;5020595;28;20385;-77
2021/06/10 04:58:09;;;;;;;14.90;13.40;;;23.70;72.10;;;;;;5019198;28;20057;-76
2021/06/10 05:00:35;;;;;;;18.38;16.17;;;23.90;71.90;;;;;;5021819;28;20562;-76
2021/06/10 05:03:01;;;;;;;15.80;13.43;;;24.20;71.10;;;;;;5019670;28;20381;-76
2021/06/10 05:05:26;;;;;;;15.82;13.00;;;24.40;70.40;;;;;;5017304;28;20029;-76
2021/06/10 05:07:52;;;;;;;16.85;14.63;;;24.40;70.10;;;;;;5020139;28;20072;-76
2021/06/10 05:10:18;;;;;;;14.65;13.18;;;24.30;69.80;;;;;;5019802;28;20042;-76
2021/06/10 05:12:43;;;;;;;17.25;13.32;;;24.30;69.30;;;;;;5021016;28;20026;-76
2021/06/10 05:15:09;;;;;;;15.35;13.77;;;24.30;69.60;;;;;;5019186;28;20026;-76
2021/06/10 05:17:35;;;;;;;15.63;13.43;;;24.50;69.60;;;;;;5019548;28;20740;-76
2021/06/10 05:20:01;;;;;;;15.43;13.90;;;24.40;69.20;;;;;;5015839;28;20162;-74
2021/06/10 05:22:27;;;;;;;17.52;14.82;;;24.50;69.20;;;;;;5020957;28;20152;-75
2021/06/10 05:24:53;;;;;;;14.35;12.85;;;24.60;69.00;;;;;;5014636;28;20083;-76
2021/06/10 05:27:18;;;;;;;14.23;12.82;;;24.90;69.00;;;;;;5020252;28;20104;-76
2021/06/10 05:29:45;;;;;;;16.50;13.82;;;25.10;67.90;;;;;;5018856;28;20409;-76
2021/06/10 05:32:10;;;;;;;22.58;15.60;;;25.10;67.80;;;;;;5019446;28;20521;-76
2021/06/10 05:34:36;;;;;;;26.08;15.68;;;24.90;68.00;;;;;;5018319;28;20049;-77
2021/06/10 05:37:01;;;;;;;18.17;14.57;;;24.80;68.00;;;;;;5018404;28;20037;-77
2021/06/10 05:39:27;;;;;;;22.55;16.90;;;24.60;68.20;;;;;;5018515;28;20057;-77
2021/06/10 05:41:53;;;;;;;25.27;16.80;;;24.40;68.90;;;;;;5019075;28;20037;-76
2021/06/10 05:44:19;;;;;;;48.25;19.48;;;24.30;69.10;;;;;;5019048;28;20344;-77
2021/06/10 05:46:46;;;;;;;23.20;16.02;;;24.20;69.60;;;;;;5021155;28;20018;-76
2021/06/10 05:49:12;;;;;;;23.48;16.83;;;24.10;69.70;;;;;;5020540;28;20075;-76
2021/06/10 05:51:38;;;;;;;19.95;17.85;;;24.00;70.20;;;;;;5020985;28;20030;-76
2021/06/10 05:54:03;;;;;;;29.23;16.45;;;23.90;70.60;;;;;;5019631;28;20040;-76
2021/06/10 05:56:29;;;;;;;33.08;16.45;;;23.80;70.90;;;;;;5020371;28;20451;-76
2021/06/10 05:58:54;;;;;;;28.42;17.60;;;23.90;70.90;;;;;;5020274;28;20033;-76
2021/06/10 06:01:20;;;;;;;28.25;17.83;;;23.90;70.90;;;;;;5020787;28;20104;-76
2021/06/10 06:03:45;;;;;;;20.80;16.88;;;24.00;71.00;;;;;;5018300;28;20032;-77
2021/06/10 06:06:11;;;;;;;21.08;19.08;;;23.90;71.00;;;;;;5012723;28;20116;-76
2021/06/10 06:08:37;;;;;;;20.65;18.50;;;23.90;70.90;;;;;;5016981;28;20053;-76
2021/06/10 06:11:02;;;;;;;20.90;16.33;;;23.80;71.40;;;;;;5018348;28;20021;-76
2021/06/10 06:13:43;;;;;;;19.60;17.35;;;23.80;71.60;;;;;;5018158;28;20029;-77
2021/06/10 06:16:10;;;;;;;19.10;15.45;;;23.80;71.90;;;;;;5021519;28;20104;-77
2021/06/10 06:18:35;;;;;;;33.63;18.60;;;23.80;72.10;;;;;;5017945;28;20041;-76
2021/06/10 06:21:01;;;;;;;29.77;18.48;;;23.80;72.00;;;;;;5018332;28;20033;-77
2021/06/10 06:23:29;;;;;;;29.08;16.77;;;23.90;72.20;;;;;;5018728;28;20337;-76
2021/06/10 06:25:55;;;;;;;26.83;17.88;;;24.10;71.50;;;;;;5016317;28;20030;-79
2021/06/10 06:28:21;;;;;;;26.58;18.52;;;24.10;71.40;;;;;;5017146;28;20029;-77
2021/06/10 06:30:46;;;;;;;24.45;17.90;;;24.10;71.50;;;;;;5012464;28;20390;-74
2021/06/10 06:33:12;;;;;;;21.90;19.15;;;24.20;71.80;;;;;;5018183;28;20171;-74
2021/06/10 06:35:41;;;;;;;28.38;19.20;;;24.20;71.40;;;;;;5019857;28;20504;-76
2021/06/10 06:38:06;;;;;;;24.45;17.42;;;24.30;70.80;;;;;;5058815;22;20505;-75
2021/06/10 06:40:32;;;;;;;22.80;17.23;;;24.30;71.10;;;;;;5055242;28;20025;-75
2021/06/10 06:42:58;;;;;;;20.55;16.77;;;24.40;71.00;;;;;;5038330;28;20052;-75
2021/06/10 06:45:23;;;;;;;21.13;17.63;;;24.40;70.90;;;;;;5039944;28;20442;-75
2021/06/10 06:47:49;;;;;;;19.95;16.60;;;24.50;70.90;;;;;;5038326;28;20032;-75
2021/06/10 06:50:14;;;;;;;22.33;18.40;;;24.70;71.00;;;;;;5036291;28;20041;-75
2021/06/10 06:52:40;;;;;;;22.30;19.40;;;24.80;70.30;;;;;;5037174;28;20029;-75
2021/06/10 06:55:06;;;;;;;20.95;19.00;;;24.80;70.40;;;;;;5039338;28;20029;-77
2021/06/10 06:57:31;;;;;;;21.85;19.63;;;24.70;70.20;;;;;;5035140;28;20025;-78
2021/06/10 06:59:57;;;;;;;17.20;15.50;;;24.60;70.20;;;;;;5038165;28;20028;-74
2021/06/10 07:02:23;;;;;;;17.17;15.55;;;24.50;70.80;;;;;;5035814;28;20738;-74
2021/06/10 07:04:48;;;;;;;21.48;17.48;;;24.50;70.70;;;;;;5039756;28;20041;-74
2021/06/10 07:07:14;;;;;;;18.40;16.60;;;24.60;70.70;;;;;;5037480;28;20034;-76
2021/06/10 07:09:40;;;;;;;18.17;16.38;;;24.70;70.30;;;;;;5037602;28;20116;-76
2021/06/10 07:12:06;;;;;;;19.33;17.08;;;24.80;70.00;;;;;;5041579;28;20518;-76
2021/06/10 07:14:32;;;;;;;19.00;17.17;;;24.90;69.80;;;;;;5039354;28;20735;-77
2021/06/10 07:16:58;;;;;;;22.75;17.30;;;24.90;69.70;;;;;;5036552;28;20026;-76
2021/06/10 07:19:24;;;;;;;17.30;14.35;;;24.80;69.70;;;;;;5037556;28;20021;-75
2021/06/10 07:21:50;;;;;;;21.13;15.93;;;24.90;69.80;;;;;;5034562;28;20032;-75
2021/06/10 07:24:17;;;;;;;15.98;13.13;;;24.90;69.60;;;;;;5035595;28;20038;-78
2021/06/10 07:26:44;;;;;;;16.67;13.85;;;25.10;69.50;;;;;;5035120;28;20495;-78
2021/06/10 07:29:11;;;;;;;14.80;13.45;;;25.30;69.30;;;;;;5039218;28;20029;-77
2021/06/10 07:31:36;;;;;;;17.70;15.10;;;25.50;69.10;;;;;;5036185;28;20033;-81
2021/06/10 07:34:04;;;;;;;15.88;14.27;;;25.60;68.70;;;;;;5041425;28;20031;-80
2021/06/10 07:36:30;;;;;;;15.43;12.43;;;25.70;68.10;;;;;;5039548;28;20377;-79
2021/06/10 07:38:56;;;;;;;14.80;12.68;;;25.70;68.00;;;;;;5034532;28;20517;-80
2021/06/10 07:41:22;;;;;;;16.15;14.25;;;25.90;68.40;;;;;;5039334;28;20041;-80
2021/06/10 07:43:47;;;;;;;14.88;13.38;;;26.00;67.30;;;;;;5038228;28;20026;-79
2021/06/10 07:46:13;;;;;;;18.95;16.98;;;26.10;67.00;;;;;;5042058;28;20028;-76
2021/06/10 07:48:39;;;;;;;17.23;14.23;;;26.10;65.90;;;;;;5037736;28;20154;-76
2021/06/10 07:51:06;;;;;;;23.55;16.55;;;26.00;66.70;;;;;;5039976;28;20515;-78
2021/06/10 07:53:33;;;;;;;17.25;15.10;;;26.20;66.70;;;;;;5037737;28;20037;-78
2021/06/10 07:55:59;;;;;;;19.85;16.45;;;26.20;66.30;;;;;;5040667;28;20026;-78
2021/06/10 07:58:26;;;;;;;21.40;14.05;;;26.20;65.40;;;;;;5041101;28;20068;-78
2021/06/10 08:00:52;;;;;;;15.98;13.02;;;26.20;65.50;;;;;;5038083;28;20022;-78
2021/06/10 08:03:18;;;;;;;15.15;13.30;;;26.20;65.60;;;;;;5042377;28;20033;-78
2021/06/10 08:05:43;;;;;;;12.85;11.32;;;26.30;65.40;;;;;;5040950;28;20374;-78
2021/06/10 08:08:09;;;;;;;15.40;12.73;;;26.40;65.20;;;;;;5040535;28;20473;-78
2021/06/10 08:10:34;;;;;;;18.23;13.50;;;26.50;64.80;;;;;;5041881;28;20033;-78
2021/06/10 08:13:00;;;;;;;18.02;13.02;;;26.60;64.60;;;;;;5042000;28;20028;-77
2021/06/10 08:15:26;;;;;;;14.23;12.73;;;26.70;64.30;;;;;;5041240;28;20040;-77
2021/06/10 08:17:51;;;;;;;13.57;11.68;;;26.60;64.10;;;;;;5039476;28;20408;-76
2021/06/10 08:20:18;;;;;;;61.50;14.48;;;26.50;64.70;;;;;;5043425;28;20033;-77
2021/06/10 08:22:45;;;;;;;14.40;10.48;;;26.50;64.60;;;;;;5039566;28;20025;-76
2021/06/10 08:25:11;;;;;;;9.65;8.65;;;26.70;64.70;;;;;;5041690;28;20025;-78
2021/06/10 08:27:37;;;;;;;23.27;10.80;;;26.90;63.90;;;;;;5042929;28;20391;-78
2021/06/10 08:30:05;;;;;;;41.40;13.95;;;27.00;62.80;;;;;;5044202;28;20562;-79
2021/06/10 08:32:31;;;;;;;18.98;11.10;;;26.90;62.20;;;;;;5048082;28;20546;-78
2021/06/10 08:34:56;;;;;;;10.77;9.57;;;26.90;63.00;;;;;;5033630;28;20029;-78
2021/06/10 08:37:23;;;;;;;10.35;9.13;;;26.80;62.50;;;;;;5037898;28;20090;-79
2021/06/10 08:39:49;;;;;;;10.70;9.40;;;26.80;62.30;;;;;;5035669;28;20132;-78
2021/06/10 08:42:15;;;;;;;10.70;7.63;;;26.80;61.70;;;;;;5040131;28;20124;-78
2021/06/10 08:44:43;;;;;;;11.52;8.00;;;26.80;62.40;;;;;;5042458;28;20025;-78
2021/06/10 08:47:10;;;;;;;10.65;9.57;;;26.90;62.00;;;;;;5039632;28;20025;-77
2021/06/10 08:49:36;;;;;;;9.25;7.97;;;27.10;61.50;;;;;;5037968;28;20157;-79
2021/06/10 08:52:07;;;;;;;15.25;7.70;;;27.10;61.60;;;;;;5043181;28;20021;-79
2021/06/10 08:54:33;;;;;;;11.95;10.85;;;27.20;61.70;;;;;;5039425;28;20018;-79
2021/06/10 08:56:59;;;;;;;10.30;9.27;;;27.10;61.20;;;;;;5041257;28;20124;-78
2021/06/10 08:59:25;;;;;;;13.85;12.00;;;26.90;61.20;;;;;;5047224;28;20036;-78
2021/06/10 09:01:50;;;;;;;18.60;9.52;;;26.90;61.80;;;;;;5039540;28;20017;-73
2021/06/10 09:04:17;;;;;;;21.77;10.93;;;26.90;62.30;;;;;;5038700;28;20034;-73
2021/06/10 09:06:51;;;;;;;10.43;9.52;;;27.00;62.50;;;;;;5037901;28;20496;-76
2021/06/10 09:09:40;;;;;;;12.25;8.35;;;27.10;61.40;;;;;;5042045;28;20025;-75
2021/06/10 09:12:09;;;;;;;11.68;8.30;;;27.10;61.40;;;;;;5040268;28;20080;-75
2021/06/10 09:15:02;;;;;;;13.07;9.25;;;27.10;61.20;;;;;;5035178;28;20039;-75
2021/06/10 09:17:28;;;;;;;11.25;8.00;;;27.20;61.20;;;;;;5041272;28;20028;-75
2021/06/10 09:19:53;;;;;;;11.90;9.77;;;27.40;61.70;;;;;;5038456;28;20033;-75
2021/06/10 09:22:19;;;;;;;13.35;9.40;;;27.50;60.80;;;;;;5036288;28;20322;-76
2021/06/10 09:24:45;;;;;;;11.25;8.45;;;27.30;61.20;;;;;;5040736;28;20024;-73
2021/06/10 09:27:15;;;;;;;10.00;9.00;;;27.20;62.10;;;;;;5023617;28;20491;-73
2021/06/10 09:29:52;;;;;;;28.25;11.25;;;27.30;61.00;;;;;;5035928;28;20018;-73
2021/06/10 09:32:26;;;;;;;20.67;9.93;;;27.20;62.10;;;;;;5040310;28;20132;-74
2021/06/10 09:34:55;;;;;;;14.65;10.18;;;27.30;61.80;;;;;;5039740;28;20029;-73
2021/06/10 09:37:37;;;;;;;18.38;9.93;;;27.50;61.20;;;;;;5038340;28;20042;-74
2021/06/10 09:40:06;;;;;;;11.93;10.73;;;27.60;61.10;;;;;;5038752;28;20029;-75
2021/06/10 09:42:35;;;;;;;14.52;9.43;;;27.60;60.50;;;;;;5041253;28;20025;-75
2021/06/10 09:45:01;;;;;;;17.88;10.65;;;27.60;61.30;;;;;;5042231;28;20026;-75
2021/06/10 09:47:32;;;;;;;15.43;10.55;;;27.60;61.10;;;;;;5037770;28;20021;-75
2021/06/10 09:50:29;;;;;;;12.02;10.77;;;27.60;61.40;;;;;;5040763;28;20029;-74
2021/06/10 09:52:57;;;;;;;;;;;27.70;60.00;;;;;;5041168;28;20025;-72
2021/06/10 09:55:32;;;;;;;10.85;9.85;;;27.40;60.00;;;;;;5042160;28;20443;-74
2021/06/10 09:58:13;;;;;;;13.43;12.02;;;27.20;61.20;;;;;;5040931;28;20018;-73
2021/06/10 10:00:48;;;;;;;11.65;10.55;;;27.00;61.10;;;;;;5037903;28;20064;-73
2021/06/10 10:03:26;;;;;;;14.02;12.68;;;26.80;61.30;;;;;;5039173;28;20136;-74
2021/06/10 10:05:52;;;;;;;27.27;11.18;;;26.70;61.70;;;;;;5039219;28;20017;-73
2021/06/10 10:08:18;;;;;;;18.27;11.75;;;26.60;62.40;;;;;;5034600;28;20021;-72
2021/06/10 10:10:44;;;;;;;14.75;12.73;;;26.70;61.60;;;;;;5038683;28;20032;-76
2021/06/10 10:13:14;;;;;;;11.82;10.35;;;26.70;61.10;;;;;;5038088;28;20122;-76
2021/06/10 10:15:40;;;;;;;21.00;10.65;;;26.50;61.60;;;;;;5034301;28;20029;-73
2021/06/10 10:18:06;;;;;;;16.73;11.05;;;26.70;62.40;;;;;;5036471;28;20073;-72
2021/06/10 10:20:32;;;;;;;14.57;13.27;;;26.90;61.80;;;;;;5031193;28;20040;-72
2021/06/10 10:22:58;;;;;;;16.42;14.73;;;27.00;58.90;;;;;;5036804;28;20446;-73
2021/06/10 10:25:24;;;;;;;13.35;12.18;;;27.00;58.50;;;;;;5032924;28;20056;-72
2021/06/10 10:27:49;;;;;;;15.20;12.10;;;26.90;59.60;;;;;;5036031;28;20032;-72
2021/06/10 10:30:18;;;;;;;17.30;12.82;;;26.90;60.10;;;;;;5040275;28;20025;-72
2021/06/10 10:32:44;;;;;;;14.95;11.50;;;26.90;59.60;;;;;;5038531;28;20071;-72
2021/06/10 10:35:26;;;;;;;16.10;14.52;;;26.80;59.60;;;;;;5038762;28;20030;-73
2021/06/10 10:37:54;;;;;;;15.80;12.32;;;27.00;58.50;;;;;;5038585;28;20425;-72
2021/06/10 10:40:24;;;;;;;15.25;13.77;;;26.90;59.10;;;;;;5033404;28;20021;-77
2021/06/10 10:42:54;;;;;;;21.95;13.68;;;27.00;58.40;;;;;;5022244;28;20037;-76
2021/06/10 10:45:26;;;;;;;13.75;12.45;;;27.00;57.80;;;;;;5038439;28;20056;-76
2021/06/10 10:48:05;;;;;;;15.00;12.60;;;27.10;57.00;;;;;;5031070;28;20021;-74
2021/06/10 10:50:44;;;;;;;20.08;16.27;;;27.20;57.40;;;;;;5036932;28;20030;-77
2021/06/10 10:53:18;;;;;;;14.20;12.80;;;27.20;56.10;;;;;;5039017;28;20033;-74
2021/06/10 10:55:44;;;;;;;20.65;12.35;;;27.10;57.10;;;;;;5038421;28;20485;-74
2021/06/10 10:58:20;;;;;;;15.70;13.98;;;27.10;57.10;;;;;;5039510;28;20021;-74
2021/06/10 11:01:28;;;;;;;13.75;12.45;;;27.40;54.90;;;;;;5037176;28;20038;-76
2021/06/10 11:03:54;;;;;;;12.38;11.10;;;27.30;54.60;;;;;;5005244;28;20065;-75
2021/06/10 11:06:25;;;;;;;15.35;13.20;;;27.40;55.70;;;;;;5035784;28;20072;-75
2021/06/10 11:11:58;;;;;;;10.77;9.73;;;27.30;54.60;;;;;;5038735;28;20050;-74
2021/06/10 11:14:52;;;;;;;16.70;10.85;;;27.20;56.20;;;;;;5037072;28;20059;-75
2021/06/10 11:17:29;;;;;;;13.27;11.85;;;27.60;56.10;;;;;;5037360;28;20396;-74
2021/06/10 11:20:01;;;;;;;18.40;13.60;;;27.80;55.60;;;;;;5038449;28;20025;-75
2021/06/10 11:22:30;;;;;;;14.75;12.75;;;27.90;53.60;;;;;;5036578;28;20025;-74
2021/06/10 11:24:57;;;;;;;15.75;12.02;;;27.70;54.60;;;;;;5037376;28;20123;-75
2021/06/10 11:28:06;;;;;;;14.20;12.13;;;27.60;54.90;;;;;;5037042;28;20083;-74
2021/06/10 11:30:31;;;;;;;12.32;11.30;;;27.60;54.40;;;;;;5001111;28;20148;-75
2021/06/10 11:33:04;;;;;;;13.60;12.43;;;27.80;54.30;;;;;;5036357;28;20482;-75
2021/06/10 11:35:46;;;;;;;14.82;13.40;;;27.90;52.20;;;;;;5035850;28;20431;-75
2021/06/10 11:38:20;;;;;;;16.45;14.85;;;28.00;53.20;;;;;;5035718;28;20041;-75
2021/06/10 11:40:48;;;;;;;13.07;11.88;;;27.90;52.50;;;;;;5039806;28;20045;-76
2021/06/10 11:43:14;;;;;;;14.90;13.38;;;27.70;53.50;;;;;;5038931;28;20500;-76
2021/06/10 11:45:41;;;;;;;16.50;14.88;;;27.60;53.40;;;;;;5037774;28;20060;-75
2021/06/10 11:48:07;;;;;;;15.00;13.60;;;27.50;53.60;;;;;;5036137;28;20962;-75
2021/06/10 11:50:42;;;;;;;16.55;14.80;;;27.30;53.80;;;;;;5037248;28;20091;-75
2021/06/10 11:53:19;;;;;;;13.73;12.52;;;27.20;54.30;;;;;;5036975;28;20094;-75
2021/06/10 11:55:46;;;;;;;12.35;11.05;;;27.30;54.30;;;;;;5039746;28;20026;-74
2021/06/10 11:58:14;;;;;;;9.20;8.30;;;27.50;54.80;;;;;;5036616;28;20078;-75
2021/06/10 12:00:42;;;;;;;13.45;12.02;;;27.60;52.70;;;;;;5037880;28;20203;-74
2021/06/10 12:03:17;;;;;;;11.95;10.48;;;27.80;52.20;;;;;;5036958;28;20023;-73
2021/06/10 12:05:51;;;;;;;12.68;9.65;;;27.90;51.90;;;;;;5037564;28;20476;-75
2021/06/10 12:08:18;;;;;;;14.45;10.63;;;28.00;51.50;;;;;;5038837;28;20393;-75
2021/06/10 12:10:57;;;;;;;11.05;8.82;;;28.00;49.90;;;;;;5036600;28;20127;-74
2021/06/10 12:13:34;;;;;;;15.57;7.63;;;28.00;51.10;;;;;;5036906;28;20611;-74
2021/06/10 12:16:01;;;;;;;11.05;8.77;;;28.40;52.20;;;;;;5039033;28;20400;-76
2021/06/10 12:18:28;;;;;;;10.50;9.25;;;28.70;51.40;;;;;;5037292;28;20026;-75
2021/06/10 12:20:57;;;;;;;11.18;10.18;;;28.80;50.80;;;;;;5040321;28;20123;-76
2021/06/10 12:23:30;;;;;;;10.00;8.98;;;28.70;51.40;;;;;;5033113;28;20035;-76
2021/06/10 12:25:58;;;;;;;10.05;7.93;;;28.60;51.10;;;;;;5036155;28;20028;-76
2021/06/10 12:28:48;;;;;;;10.07;9.07;;;28.60;50.90;;;;;;5052566;28;20510;-74
2021/06/10 12:31:16;;;;;;;13.35;9.38;;;28.40;49.30;;;;;;5038390;28;20076;-74
2021/06/10 12:33:53;;;;;;;13.48;11.15;;;28.10;50.90;;;;;;5037341;28;20052;-76
2021/06/10 12:38:58;;;;;;;14.40;11.95;;;27.80;51.00;;;;;;5056296;22;20111;-74
2021/06/10 12:41:28;;;;;;;11.95;10.85;;;27.60;52.00;;;;;;5036648;28;20029;-74
2021/06/10 12:44:07;;;;;;;12.45;11.18;;;27.50;52.70;;;;;;5037426;28;20029;-75